Time;durP1;ratioP1;P1;durP2;ratioP2;P2;SDS_P1;SDS_P2;PMS_P1;PMS_P2;Temp;Humidity;BMP_temperature;BMP_pressure;BME280_temperature;BME280_humidity;BME280_pressure;Samples;Min_cycle;Max_cycle;Signal;HPM_P1;HPM_P2
2022/12/10 00:01:14;;;;;;;49.53;31.53;;;1.80;99.90;;;;;;5073165;28;20188;-76
2022/12/10 00:03:40;;;;;;;50.60;36.83;;;1.90;99.90;;;;;;5077901;28;20181;-75
2022/12/10 00:06:09;;;;;;;57.60;40.57;;;1.90;99.90;;;;;;5075149;28;20698;-76
2022/12/10 00:08:35;;;;;;;57.10;41.03;;;1.90;99.90;;;;;;5072161;28;20342;-75
2022/12/10 00:11:07;;;;;;;59.10;45.37;;;1.90;99.90;;;;;;5052848;28;20231;-76
2022/12/10 00:13:34;;;;;;;64.10;46.33;;;2.00;99.90;;;;;;5052625;28;20606;-76
2022/12/10 00:16:01;;;;;;;55.40;41.70;;;2.00;99.90;;;;;;5052611;28;20175;-76
2022/12/10 00:18:27;;;;;;;51.97;42.47;;;2.00;99.90;;;;;;5051995;28;20255;-76
2022/12/10 00:20:53;;;;;;;61.90;55.27;;;2.00;99.90;;;;;;5051468;28;20268;-76
2022/12/10 00:23:19;;;;;;;54.53;42.07;;;2.00;99.90;;;;;;5052590;28;20191;-75
2022/12/10 00:25:46;;;;;;;60.57;44.13;;;1.90;99.90;;;;;;5071014;28;20666;-76
2022/12/10 00:28:11;;;;;;;57.90;44.60;;;1.90;99.90;;;;;;5072040;28;20296;-76
2022/12/10 00:30:37;;;;;;;60.03;44.00;;;1.90;99.90;;;;;;5072173;28;20259;-78
2022/12/10 00:33:05;;;;;;;60.97;40.47;;;1.90;99.90;;;;;;5072732;28;20178;-76
2022/12/10 00:35:34;;;;;;;55.00;36.07;;;1.90;99.90;;;;;;5073226;28;20177;-76
2022/12/10 00:38:00;;;;;;;51.93;39.10;;;1.80;99.90;;;;;;5071958;28;20657;-76
2022/12/10 00:40:26;;;;;;;52.37;41.17;;;1.80;99.90;;;;;;5079451;22;20240;-75
2022/12/10 00:42:51;;;;;;;55.77;41.67;;;1.90;99.90;;;;;;5053310;28;20185;-75
2022/12/10 00:45:17;;;;;;;56.47;42.63;;;1.80;99.90;;;;;;5052797;28;20180;-75
2022/12/10 00:47:43;;;;;;;48.77;40.20;;;1.80;99.90;;;;;;5035095;28;20207;-75
2022/12/10 00:50:09;;;;;;;47.40;37.77;;;1.80;99.90;;;;;;5035184;28;20292;-72
2022/12/10 00:52:35;;;;;;;43.63;31.20;;;1.80;99.90;;;;;;5052533;28;20228;-73
2022/12/10 00:55:01;;;;;;;47.60;33.87;;;1.80;99.90;;;;;;5050959;28;20189;-72
2022/12/10 00:57:27;;;;;;;50.97;36.73;;;1.80;99.90;;;;;;5052354;28;20280;-73
2022/12/10 00:59:53;;;;;;;48.50;35.97;;;1.80;99.90;;;;;;5052642;28;20669;-75
2022/12/10 01:02:19;;;;;;;53.87;32.57;;;1.80;99.90;;;;;;5051615;28;20279;-74
2022/12/10 01:04:45;;;;;;;42.87;30.93;;;1.80;99.90;;;;;;5035020;28;20638;-73
2022/12/10 01:07:10;;;;;;;43.10;27.70;;;1.80;99.90;;;;;;5052220;28;20194;-73
2022/12/10 01:09:36;;;;;;;45.80;28.70;;;1.70;99.90;;;;;;5034773;28;20255;-73
2022/12/10 01:12:03;;;;;;;47.23;32.73;;;1.80;99.90;;;;;;5053079;28;20207;-73
2022/12/10 01:14:33;;;;;;;42.13;27.13;;;1.80;99.90;;;;;;5035196;28;20178;-73
2022/12/10 01:17:02;;;;;;;45.70;26.67;;;1.80;99.90;;;;;;5034849;28;20261;-73
2022/12/10 01:19:28;;;;;;;41.93;27.13;;;1.80;99.90;;;;;;5035339;28;20201;-73
2022/12/10 01:21:55;;;;;;;46.67;27.53;;;1.80;99.90;;;;;;5034893;28;20184;-73
2022/12/10 01:24:23;;;;;;;46.93;28.33;;;1.80;99.90;;;;;;5053010;28;20244;-73
2022/12/10 01:26:49;;;;;;;43.50;28.03;;;1.80;99.90;;;;;;5052687;28;20181;-73
2022/12/10 01:29:15;;;;;;;41.67;27.57;;;1.90;99.90;;;;;;5034406;28;20584;-73
2022/12/10 01:31:41;;;;;;;44.17;30.43;;;1.90;99.90;;;;;;5034660;28;20594;-74
2022/12/10 01:34:11;;;;;;;46.97;30.37;;;1.90;99.90;;;;;;5052548;28;20236;-73
2022/12/10 01:36:42;;;;;;;43.03;26.73;;;1.90;99.90;;;;;;5052052;28;20185;-73
2022/12/10 01:39:10;;;;;;;43.53;26.83;;;1.90;99.90;;;;;;5051738;28;20217;-74
2022/12/10 01:41:42;;;;;;;46.67;26.97;;;1.90;99.90;;;;;;5052148;28;20243;-73
2022/12/10 01:44:08;;;;;;;44.73;29.47;;;1.90;99.90;;;;;;5052258;28;20586;-73
2022/12/10 01:46:39;;;;;;;51.27;32.87;;;1.80;99.90;;;;;;5034693;28;20214;-73
2022/12/10 01:49:08;;;;;;;48.50;32.97;;;1.90;99.90;;;;;;5058585;28;20224;-72
2022/12/10 01:51:36;;;;;;;52.43;36.03;;;1.80;99.90;;;;;;5057189;28;20182;-73
2022/12/10 01:54:04;;;;;;;47.10;38.17;;;1.90;99.90;;;;;;5051487;28;20731;-73
2022/12/10 01:56:31;;;;;;;46.87;36.67;;;1.80;99.90;;;;;;5051777;28;20665;-73
2022/12/10 01:58:57;;;;;;;49.20;37.37;;;1.80;99.90;;;;;;5033451;28;20205;-72
2022/12/10 02:01:40;;;;;;;52.67;40.67;;;1.80;99.90;;;;;;5051453;28;20182;-74
2022/12/10 02:04:21;;;;;;;50.60;38.50;;;1.90;99.90;;;;;;5051404;28;20186;-73
2022/12/10 02:06:47;;;;;;;49.23;36.27;;;1.90;99.90;;;;;;5051224;28;20188;-74
2022/12/10 02:09:29;;;;;;;55.73;42.40;;;1.80;99.90;;;;;;5051740;28;20666;-72
2022/12/10 02:12:16;;;;;;;48.60;41.80;;;1.80;99.90;;;;;;5051747;28;20183;-73
2022/12/10 02:14:45;;;;;;;50.80;43.90;;;1.80;99.90;;;;;;5058613;28;20239;-73
2022/12/10 02:17:19;;;;;;;48.53;39.83;;;1.80;99.90;;;;;;5040170;28;20227;-74
2022/12/10 02:20:09;;;;;;;45.23;36.47;;;1.70;99.90;;;;;;5058020;28;20208;-74
2022/12/10 02:22:44;;;;;;;46.10;37.33;;;1.80;99.90;;;;;;5058131;28;20186;-74
2022/12/10 02:25:13;;;;;;;46.50;36.23;;;1.70;99.90;;;;;;5058387;28;20768;-74
2022/12/10 02:28:09;;;;;;;51.63;41.17;;;1.80;99.90;;;;;;5057630;28;20276;-74
2022/12/10 02:30:36;;;;;;;48.43;37.47;;;1.80;99.90;;;;;;5058393;28;20295;-74
2022/12/10 02:33:05;;;;;;;53.00;42.33;;;1.80;99.90;;;;;;5058251;28;20189;-73
2022/12/10 02:35:35;;;;;;;44.20;34.13;;;1.80;99.90;;;;;;5040570;28;20182;-74
2022/12/10 02:38:15;;;;;;;43.47;29.00;;;1.70;99.90;;;;;;5057856;28;20262;-73
2022/12/10 02:40:48;;;;;;;41.07;25.77;;;1.70;99.90;;;;;;5058591;28;20581;-74
2022/12/10 02:43:15;;;;;;;41.37;25.83;;;1.70;99.90;;;;;;5058620;28;20214;-74
2022/12/10 02:45:43;;;;;;;41.40;24.83;;;1.70;99.90;;;;;;5040797;28;20175;-74
2022/12/10 02:48:10;;;;;;;41.73;25.10;;;1.70;99.90;;;;;;5057795;28;20190;-73
2022/12/10 02:50:36;;;;;;;44.73;26.10;;;1.70;99.90;;;;;;5040201;28;20277;-74
2022/12/10 02:53:02;;;;;;;36.97;26.17;;;1.70;99.90;;;;;;5040538;28;20650;-74
2022/12/10 02:55:43;;;;;;;42.60;25.43;;;1.70;99.90;;;;;;5040305;28;20180;-74
2022/12/10 02:58:26;;;;;;;37.97;26.30;;;1.70;99.90;;;;;;5058054;28;20180;-74
2022/12/10 03:01:27;;;;;;;45.10;26.83;;;1.70;99.90;;;;;;5040630;28;20182;-74
2022/12/10 03:04:00;;;;;;;40.40;24.73;;;1.70;99.90;;;;;;5026412;28;20279;-74
2022/12/10 03:06:33;;;;;;;41.50;25.80;;;1.70;99.90;;;;;;5058168;28;20192;-74
2022/12/10 03:09:04;;;;;;;40.00;24.83;;;1.70;99.90;;;;;;5039673;28;20879;-74
2022/12/10 03:11:30;;;;;;;38.03;26.07;;;1.70;99.90;;;;;;5058371;28;20188;-74
2022/12/10 03:14:11;;;;;;;37.77;24.07;;;1.70;99.90;;;;;;5058232;28;20176;-74
2022/12/10 03:17:01;;;;;;;36.03;23.37;;;1.70;99.90;;;;;;5058195;28;20202;-74
2022/12/10 03:19:40;;;;;;;34.97;24.17;;;1.70;99.90;;;;;;5044849;28;20216;-74
2022/12/10 03:22:09;;;;;;;37.40;24.70;;;1.60;99.90;;;;;;5040482;28;20191;-74
2022/12/10 03:24:36;;;;;;;38.70;25.07;;;1.50;99.90;;;;;;5055739;28;20184;-74
2022/12/10 03:27:04;;;;;;;38.00;24.33;;;1.50;99.90;;;;;;5054671;28;20673;-73
2022/12/10 03:29:34;;;;;;;33.37;24.37;;;1.50;99.90;;;;;;5054670;28;20278;-74
2022/12/10 03:32:02;;;;;;;39.60;24.93;;;1.50;99.90;;;;;;5037058;28;20184;-74
2022/12/10 03:34:28;;;;;;;37.63;24.77;;;1.50;99.90;;;;;;5037630;28;20179;-72
2022/12/10 03:36:54;;;;;;;41.03;26.20;;;1.40;99.90;;;;;;5069881;28;20272;-73
2022/12/10 03:39:20;;;;;;;41.47;34.13;;;1.40;99.90;;;;;;5059407;28;20224;-72
2022/12/10 03:41:46;;;;;;;41.73;32.83;;;1.50;99.90;;;;;;5054067;28;20194;-73
2022/12/10 03:44:12;;;;;;;42.60;31.30;;;1.50;99.90;;;;;;5054610;28;20186;-72
2022/12/10 03:46:38;;;;;;;42.60;32.07;;;1.40;99.90;;;;;;5036280;28;20190;-73
2022/12/10 03:49:05;;;;;;;42.33;37.77;;;1.40;99.90;;;;;;5054238;28;20617;-74
2022/12/10 03:51:31;;;;;;;41.87;37.37;;;1.40;99.90;;;;;;5036915;28;20184;-73
2022/12/10 03:53:56;;;;;;;43.57;38.63;;;1.30;99.90;;;;;;5037143;28;20655;-73
2022/12/10 03:56:22;;;;;;;41.07;34.53;;;1.30;99.90;;;;;;5036705;28;20681;-73
2022/12/10 03:58:48;;;;;;;36.63;25.60;;;1.30;99.90;;;;;;5054035;28;20608;-74
2022/12/10 04:01:15;;;;;;;36.37;24.47;;;1.30;99.90;;;;;;5034810;28;20217;-74
2022/12/10 04:03:42;;;;;;;36.93;25.40;;;1.30;99.90;;;;;;5034728;28;20640;-73
2022/12/10 04:06:14;;;;;;;37.60;24.20;;;1.30;99.90;;;;;;5034662;28;20178;-74
2022/12/10 04:08:40;;;;;;;30.63;23.67;;;1.20;99.90;;;;;;5016534;28;20295;-74
2022/12/10 04:11:08;;;;;;;31.40;22.97;;;1.20;99.90;;;;;;5053142;28;20204;-74
2022/12/10 04:16:29;;;;;;;34.13;24.50;;;1.20;99.90;;;;;;5054262;28;20235;-73
2022/12/10 04:18:57;;;;;;;33.10;22.60;;;1.30;99.90;;;;;;5035970;28;20582;-74
2022/12/10 04:26:55;;;;;;;39.23;25.33;;;1.30;99.90;;;;;;5053490;28;20325;-74
2022/12/10 04:29:27;;;;;;;41.10;28.83;;;1.40;99.90;;;;;;5035548;28;20286;-73
2022/12/10 04:31:53;;;;;;;35.87;26.73;;;1.40;99.90;;;;;;5053665;28;20183;-74
2022/12/10 04:34:20;;;;;;;38.53;28.30;;;1.40;99.90;;;;;;5036096;28;20608;-72
2022/12/10 04:36:47;;;;;;;34.73;27.63;;;1.30;99.90;;;;;;5053157;28;20674;-73
2022/12/10 04:39:13;;;;;;;35.80;27.03;;;1.40;99.90;;;;;;5035682;28;20221;-74
2022/12/10 04:41:41;;;;;;;36.20;25.80;;;1.30;99.90;;;;;;5053954;28;20589;-74
2022/12/10 04:44:07;;;;;;;32.07;24.93;;;1.30;99.90;;;;;;5035794;28;20190;-74
2022/12/10 04:46:33;;;;;;;34.20;23.50;;;1.30;99.90;;;;;;5053359;28;20183;-74
2022/12/10 04:48:59;;;;;;;36.87;24.13;;;1.40;99.90;;;;;;5034979;28;20220;-74
2022/12/10 04:51:25;;;;;;;33.50;24.87;;;1.40;99.90;;;;;;5053664;28;20184;-74
2022/12/10 04:53:51;;;;;;;37.17;25.73;;;1.40;99.90;;;;;;5035882;28;20256;-74
2022/12/10 04:56:17;;;;;;;37.37;24.93;;;1.40;99.90;;;;;;5053479;28;20282;-74
2022/12/10 04:58:42;;;;;;;32.57;24.90;;;1.40;99.90;;;;;;5053001;28;20203;-74
2022/12/10 05:01:10;;;;;;;36.57;24.83;;;1.40;99.90;;;;;;5053046;28;20182;-74
2022/12/10 05:03:36;;;;;;;37.57;25.13;;;1.40;99.90;;;;;;5053528;28;20188;-72
2022/12/10 05:06:09;;;;;;;36.60;24.93;;;1.40;99.90;;;;;;5053136;28;20180;-73
2022/12/10 05:08:37;;;;;;;31.67;24.20;;;1.40;99.90;;;;;;5052960;28;20210;-73
2022/12/10 05:11:05;;;;;;;32.97;22.17;;;1.30;99.90;;;;;;5053031;28;20184;-74
2022/12/10 05:13:31;;;;;;;32.73;24.03;;;1.30;99.90;;;;;;5053172;28;20189;-74
2022/12/10 05:15:58;;;;;;;39.47;24.13;;;1.30;99.90;;;;;;5023356;28;20197;-74
2022/12/10 05:18:23;;;;;;;34.30;23.53;;;1.30;99.90;;;;;;5049383;28;20184;-74
2022/12/10 05:20:50;;;;;;;34.57;23.43;;;1.40;99.90;;;;;;5053160;28;20191;-73
2022/12/10 05:23:27;;;;;;;35.37;25.00;;;1.40;99.90;;;;;;5055469;28;20187;-73
2022/12/10 05:26:04;;;;;;;40.00;26.13;;;1.40;99.90;;;;;;5061269;28;20182;-73
2022/12/10 05:28:32;;;;;;;36.67;24.60;;;1.50;99.90;;;;;;5053545;28;20303;-73
2022/12/10 05:30:58;;;;;;;36.77;24.83;;;1.50;99.90;;;;;;5052596;28;20182;-74
2022/12/10 05:33:25;;;;;;;36.83;24.83;;;1.50;99.90;;;;;;5052091;28;20240;-74
2022/12/10 05:36:03;;;;;;;33.27;23.43;;;1.50;99.90;;;;;;5034351;28;20535;-74
2022/12/10 05:38:31;;;;;;;35.60;23.60;;;1.50;99.90;;;;;;5033610;28;20212;-74
2022/12/10 05:41:05;;;;;;;36.57;25.70;;;1.50;99.90;;;;;;5052067;28;20251;-74
2022/12/10 05:43:31;;;;;;;35.17;25.27;;;1.50;99.90;;;;;;5034561;28;20178;-73
2022/12/10 05:46:05;;;;;;;44.57;25.03;;;1.40;99.90;;;;;;5034165;28;20185;-74
2022/12/10 05:48:32;;;;;;;37.33;25.33;;;1.40;99.90;;;;;;5033385;28;20711;-74
2022/12/10 05:50:58;;;;;;;40.90;25.50;;;1.40;99.90;;;;;;5034338;28;20269;-73
2022/12/10 05:53:24;;;;;;;39.20;27.03;;;1.50;99.90;;;;;;5018158;28;20208;-74
2022/12/10 05:55:58;;;;;;;40.10;27.13;;;1.40;99.90;;;;;;5034734;28;20675;-74
2022/12/10 05:58:24;;;;;;;40.80;27.37;;;1.40;99.90;;;;;;5034505;28;20180;-74
2022/12/10 06:00:50;;;;;;;35.17;26.23;;;1.40;99.90;;;;;;5033893;28;20189;-74
2022/12/10 06:03:16;;;;;;;38.90;27.40;;;1.40;99.90;;;;;;5052268;28;20186;-74
2022/12/10 06:05:41;;;;;;;35.90;27.33;;;1.50;99.90;;;;;;5017629;28;20215;-74
2022/12/10 06:08:07;;;;;;;38.23;26.77;;;1.50;99.90;;;;;;5051973;28;20209;-73
2022/12/10 06:10:35;;;;;;;38.03;26.77;;;1.50;99.90;;;;;;5034210;28;20198;-74
2022/12/10 06:13:01;;;;;;;39.30;26.07;;;1.50;99.90;;;;;;5051746;28;20199;-74
2022/12/10 06:15:27;;;;;;;33.10;24.70;;;1.50;99.90;;;;;;5051609;28;20223;-76
2022/12/10 06:17:54;;;;;;;36.53;24.63;;;1.50;99.90;;;;;;5034337;28;20654;-74
2022/12/10 06:20:20;;;;;;;41.10;25.50;;;1.50;99.90;;;;;;5051339;28;20198;-75
2022/12/10 06:22:46;;;;;;;36.63;26.20;;;1.60;99.90;;;;;;5034372;28;20678;-74
2022/12/10 06:25:13;;;;;;;35.67;24.93;;;1.50;99.90;;;;;;5052447;28;20263;-76
2022/12/10 06:27:38;;;;;;;36.63;25.33;;;1.50;99.90;;;;;;5033800;28;20556;-76
2022/12/10 06:30:05;;;;;;;32.27;24.40;;;1.50;99.90;;;;;;5051711;28;20209;-74
2022/12/10 06:32:30;;;;;;;34.43;24.67;;;1.50;99.90;;;;;;5052358;28;20573;-72
2022/12/10 06:34:56;;;;;;;35.37;22.70;;;1.60;99.90;;;;;;5052655;28;20170;-73
2022/12/10 06:37:22;;;;;;;39.37;25.03;;;1.60;99.90;;;;;;5051382;28;20180;-74
2022/12/10 06:39:52;;;;;;;33.47;23.87;;;1.50;99.90;;;;;;5059325;23;20281;-68
2022/12/10 06:42:19;;;;;;;33.30;23.33;;;1.50;99.90;;;;;;5048934;28;20206;-69
2022/12/10 06:44:44;;;;;;;36.47;24.97;;;1.60;99.90;;;;;;5047019;28;20191;-66
2022/12/10 06:47:10;;;;;;;35.97;27.10;;;1.60;99.90;;;;;;5041368;28;20179;-66
2022/12/10 06:49:36;;;;;;;43.00;28.63;;;1.60;99.90;;;;;;5029753;28;20232;-65
2022/12/10 06:52:02;;;;;;;40.93;27.97;;;1.60;99.90;;;;;;5042813;28;20536;-67
2022/12/10 06:54:29;;;;;;;40.03;29.77;;;1.60;99.90;;;;;;5049384;28;20188;-69
2022/12/10 06:56:55;;;;;;;41.20;29.40;;;1.60;99.90;;;;;;5049882;28;20598;-69
2022/12/10 06:59:20;;;;;;;41.07;29.67;;;1.60;99.90;;;;;;5049496;28;20201;-71
2022/12/10 07:01:46;;;;;;;36.90;25.60;;;1.50;99.90;;;;;;5053675;28;20235;-69
2022/12/10 07:04:13;;;;;;;34.80;25.20;;;1.60;99.90;;;;;;5039798;28;20559;-69
2022/12/10 07:06:39;;;;;;;35.00;24.37;;;1.60;99.90;;;;;;5033645;28;20187;-69
2022/12/10 07:09:04;;;;;;;35.47;24.10;;;1.60;99.90;;;;;;5041609;28;20209;-69
2022/12/10 07:11:31;;;;;;;34.13;23.10;;;1.60;99.90;;;;;;5053206;28;20222;-68
2022/12/10 07:13:57;;;;;;;38.27;26.07;;;1.60;99.90;;;;;;5052302;28;20182;-69
2022/12/10 07:16:26;;;;;;;33.97;25.60;;;1.60;99.90;;;;;;5053169;28;20175;-69
2022/12/10 07:18:53;;;;;;;38.93;28.27;;;1.60;99.90;;;;;;5046392;28;20175;-68
2022/12/10 07:21:25;;;;;;;34.80;25.37;;;1.60;99.90;;;;;;5033975;28;20667;-69
2022/12/10 07:23:57;;;;;;;34.90;27.03;;;1.60;99.90;;;;;;5032623;28;20661;-68
2022/12/10 07:26:35;;;;;;;41.03;35.33;;;1.50;99.90;;;;;;5032174;28;20182;-69
2022/12/10 07:29:02;;;;;;;40.03;35.80;;;1.50;99.90;;;;;;5040274;28;20201;-68
2022/12/10 07:31:28;;;;;;;41.60;37.23;;;1.50;99.90;;;;;;5053211;28;20183;-68
2022/12/10 07:33:56;;;;;;;40.33;35.27;;;1.60;99.90;;;;;;5053249;28;20179;-69
2022/12/10 07:36:23;;;;;;;41.10;33.60;;;1.60;99.90;;;;;;5052997;28;20633;-68
2022/12/10 07:38:50;;;;;;;44.87;33.00;;;1.60;99.90;;;;;;5045056;28;20190;-68
2022/12/10 07:41:17;;;;;;;38.73;26.60;;;1.60;99.90;;;;;;5050318;28;20197;-69
2022/12/10 07:43:44;;;;;;;36.43;24.17;;;1.60;99.90;;;;;;5052365;28;20676;-68
2022/12/10 07:46:17;;;;;;;37.03;24.67;;;1.60;99.90;;;;;;5040519;28;20244;-68
2022/12/10 07:48:45;;;;;;;39.30;25.17;;;1.70;99.90;;;;;;5051132;28;20190;-68
2022/12/10 07:51:11;;;;;;;38.87;23.97;;;1.70;99.90;;;;;;5050711;28;20183;-68
2022/12/10 07:53:37;;;;;;;36.23;24.87;;;1.70;99.90;;;;;;5052810;28;20188;-68
2022/12/10 07:56:03;;;;;;;34.53;23.60;;;1.70;99.90;;;;;;5050649;28;20234;-68
2022/12/10 07:58:30;;;;;;;36.40;25.17;;;1.80;99.90;;;;;;5033799;28;20216;-68
2022/12/10 08:00:55;;;;;;;34.90;23.70;;;1.80;99.90;;;;;;5032241;28;20229;-68
2022/12/10 08:03:21;;;;;;;37.13;25.77;;;1.80;99.90;;;;;;5033777;28;20189;-68
2022/12/10 08:05:47;;;;;;;37.27;25.27;;;1.80;99.90;;;;;;5034064;28;20182;-68
2022/12/10 08:08:12;;;;;;;36.57;25.37;;;1.90;99.90;;;;;;5048719;28;20221;-68
2022/12/10 08:10:39;;;;;;;38.83;25.30;;;1.90;99.90;;;;;;5052619;28;20292;-69
2022/12/10 08:13:05;;;;;;;33.53;23.73;;;1.90;99.90;;;;;;5053200;28;20240;-68
2022/12/10 08:15:32;;;;;;;32.33;22.60;;;2.00;99.90;;;;;;5053346;28;20178;-67
2022/12/10 08:17:57;;;;;;;35.03;24.27;;;2.10;99.90;;;;;;5054786;28;20181;-68
2022/12/10 08:20:24;;;;;;;48.77;27.63;;;2.20;99.90;;;;;;5053542;28;20227;-68
2022/12/10 08:22:51;;;;;;;45.10;28.20;;;2.20;99.90;;;;;;5053365;28;20228;-68
2022/12/10 08:25:17;;;;;;;42.70;29.80;;;2.30;99.90;;;;;;5051547;28;20275;-67
2022/12/10 08:27:43;;;;;;;40.00;31.83;;;2.30;99.90;;;;;;5040693;28;20189;-68
2022/12/10 08:30:09;;;;;;;41.33;33.70;;;2.40;99.90;;;;;;5032713;28;20316;-68
2022/12/10 08:32:35;;;;;;;39.20;30.03;;;2.40;99.90;;;;;;5032850;28;20202;-68
2022/12/10 08:35:00;;;;;;;33.30;24.83;;;2.40;99.90;;;;;;5033088;28;20190;-68
2022/12/10 08:37:26;;;;;;;31.53;22.40;;;2.50;99.90;;;;;;5041310;28;20181;-67
2022/12/10 08:39:52;;;;;;;34.60;22.57;;;2.50;99.90;;;;;;5052218;28;20270;-67
2022/12/10 08:42:18;;;;;;;33.50;23.90;;;2.50;99.90;;;;;;5052611;28;20196;-68
2022/12/10 08:44:43;;;;;;;32.87;23.23;;;2.50;99.90;;;;;;5051299;28;20182;-68
2022/12/10 08:47:09;;;;;;;31.63;24.23;;;2.50;99.90;;;;;;5045843;28;20188;-68
2022/12/10 08:49:35;;;;;;;30.77;21.77;;;2.60;99.90;;;;;;5032195;28;20596;-67
2022/12/10 08:52:01;;;;;;;29.67;22.33;;;2.60;99.90;;;;;;5037621;28;20237;-70
2022/12/10 08:54:27;;;;;;;34.13;25.00;;;2.60;99.90;;;;;;5051547;28;20573;-67
2022/12/10 08:56:52;;;;;;;34.63;26.27;;;2.70;99.90;;;;;;5046491;28;20677;-68
2022/12/10 08:59:18;;;;;;;35.90;26.60;;;2.80;99.90;;;;;;5031971;28;20210;-68
2022/12/10 09:01:44;;;;;;;34.57;26.67;;;2.80;99.90;;;;;;5032091;28;20214;-68
2022/12/10 09:04:10;;;;;;;30.17;23.90;;;2.90;99.90;;;;;;5030955;28;20670;-67
2022/12/10 09:06:36;;;;;;;34.33;22.03;;;2.90;99.90;;;;;;5031472;28;20195;-67
2022/12/10 09:09:01;;;;;;;32.57;21.53;;;2.90;99.90;;;;;;5046380;28;20705;-67
2022/12/10 09:11:33;;;;;;;32.17;21.93;;;2.90;99.90;;;;;;5031852;28;20193;-68
2022/12/10 09:13:59;;;;;;;29.70;21.20;;;2.90;99.90;;;;;;5031639;28;20181;-67
2022/12/10 09:16:30;;;;;;;28.13;21.13;;;2.90;99.90;;;;;;5031647;28;20635;-68
2022/12/10 09:18:56;;;;;;;28.67;20.80;;;2.90;99.90;;;;;;5030097;28;20283;-69
2022/12/10 09:21:22;;;;;;;31.77;23.50;;;2.90;99.90;;;;;;5030019;28;20218;-69
2022/12/10 09:23:50;;;;;;;26.80;21.53;;;3.00;99.90;;;;;;5030891;28;20317;-69
2022/12/10 09:26:16;;;;;;;30.17;23.17;;;3.10;99.90;;;;;;5031766;28;20185;-70
2022/12/10 09:28:42;;;;;;;33.03;26.70;;;3.20;99.90;;;;;;5030192;28;20292;-70
2022/12/10 09:31:09;;;;;;;33.83;25.50;;;3.30;99.90;;;;;;5037706;28;20193;-69
2022/12/10 09:33:36;;;;;;;30.90;26.27;;;3.30;99.90;;;;;;5050579;28;20269;-70
2022/12/10 09:36:06;;;;;;;28.67;23.77;;;3.30;99.90;;;;;;5049816;28;20193;-70
2022/12/10 09:38:35;;;;;;;26.40;20.63;;;3.30;99.90;;;;;;5049363;28;20212;-72
2022/12/10 09:41:03;;;;;;;31.23;22.43;;;3.30;99.90;;;;;;5051095;28;20754;-71
2022/12/10 09:43:53;;;;;;;29.50;23.37;;;3.40;99.90;;;;;;5051073;28;20180;-71
2022/12/10 09:46:19;;;;;;;29.33;24.10;;;3.70;99.90;;;;;;5039349;28;20189;-73
2022/12/10 09:49:16;;;;;;;31.13;27.70;;;3.90;99.90;;;;;;5047360;28;20206;-72
2022/12/10 09:51:42;;;;;;;28.27;23.77;;;4.00;99.90;;;;;;5049620;28;20312;-71
2022/12/10 09:54:30;;;;;;;27.57;19.53;;;4.30;99.90;;;;;;5051203;28;20267;-71
2022/12/10 09:56:58;;;;;;;24.37;18.13;;;4.40;99.90;;;;;;5047079;28;20236;-71
2022/12/10 09:59:32;;;;;;;26.13;18.07;;;4.50;99.90;;;;;;5031647;28;20574;-71
2022/12/10 10:02:19;;;;;;;22.07;16.80;;;4.40;99.90;;;;;;5031323;28;20767;-71
2022/12/10 10:04:44;;;;;;;23.43;17.33;;;4.30;99.90;;;;;;5032697;28;20197;-69
2022/12/10 10:07:21;;;;;;;24.43;18.97;;;4.20;99.90;;;;;;5050562;28;20569;-69
2022/12/10 10:09:47;;;;;;;29.53;21.53;;;4.10;99.90;;;;;;5050736;28;20217;-68
2022/12/10 10:12:15;;;;;;;31.23;22.07;;;3.90;99.90;;;;;;5050466;28;20181;-69
2022/12/10 10:14:44;;;;;;;35.30;23.43;;;3.80;99.90;;;;;;5049135;28;20188;-69
2022/12/10 10:17:20;;;;;;;30.03;22.90;;;3.70;99.90;;;;;;5030412;28;20179;-69
2022/12/10 10:19:46;;;;;;;30.53;22.23;;;3.70;99.90;;;;;;5030987;28;20210;-68
2022/12/10 10:22:12;;;;;;;26.47;20.17;;;3.70;99.90;;;;;;5029624;28;20190;-68
2022/12/10 10:24:42;;;;;;;24.73;20.13;;;3.80;99.90;;;;;;5030890;28;20189;-68
2022/12/10 10:27:19;;;;;;;26.93;18.90;;;3.90;99.90;;;;;;5049820;28;20186;-67
2022/12/10 10:29:49;;;;;;;22.73;17.40;;;3.90;99.90;;;;;;5050304;28;20220;-67
2022/12/10 10:32:26;;;;;;;23.00;18.07;;;3.80;99.90;;;;;;5050093;28;20184;-67
2022/12/10 10:34:58;;;;;;;23.23;16.67;;;3.80;99.90;;;;;;5047156;28;20217;-68
2022/12/10 10:37:26;;;;;;;22.50;16.60;;;3.70;99.90;;;;;;5050472;28;20257;-68
2022/12/10 10:39:52;;;;;;;23.37;17.33;;;3.70;99.90;;;;;;5054341;28;20283;-68
2022/12/10 10:42:40;;;;;;;20.90;16.20;;;3.70;99.90;;;;;;5044308;28;20181;-69
2022/12/10 10:45:32;;;;;;;24.30;17.77;;;3.70;99.90;;;;;;5051895;28;20192;-70
2022/12/10 10:48:07;;;;;;;22.27;16.10;;;3.70;99.90;;;;;;5034283;28;20186;-69
2022/12/10 10:50:40;;;;;;;19.97;15.97;;;3.80;99.90;;;;;;5032651;28;20218;-69
2022/12/10 10:53:38;;;;;;;23.07;15.07;;;3.80;99.90;;;;;;5040718;28;20189;-69
2022/12/10 10:56:11;;;;;;;20.27;16.13;;;4.00;99.90;;;;;;5041428;28;20760;-69
2022/12/10 10:58:56;;;;;;;20.57;16.97;;;4.10;99.90;;;;;;5033096;28;20570;-68
2022/12/10 11:01:42;;;;;;;19.97;15.90;;;4.30;99.90;;;;;;5033009;28;20550;-68
2022/12/10 11:04:08;;;;;;;23.47;15.00;;;4.20;99.90;;;;;;5033565;28;20183;-68
2022/12/10 11:06:34;;;;;;;21.40;15.90;;;4.30;99.90;;;;;;5033755;28;20185;-68
2022/12/10 11:09:00;;;;;;;22.93;17.63;;;4.40;99.90;;;;;;5033361;28;20587;-68
2022/12/10 11:11:32;;;;;;;21.20;16.47;;;4.40;99.90;;;;;;5032757;28;20561;-68
2022/12/10 11:14:24;;;;;;;21.73;15.87;;;4.50;99.90;;;;;;5033812;28;20316;-68
2022/12/10 11:16:59;;;;;;;22.10;15.40;;;4.60;99.90;;;;;;5033860;28;20663;-68
2022/12/10 11:19:26;;;;;;;19.63;15.97;;;4.60;99.90;;;;;;5033575;28;20574;-68
2022/12/10 11:21:52;;;;;;;27.67;17.53;;;4.50;99.90;;;;;;5033455;28;20356;-68
2022/12/10 11:24:19;;;;;;;23.63;17.20;;;4.40;99.90;;;;;;5053754;28;20188;-69
2022/12/10 11:26:51;;;;;;;17.80;14.97;;;4.20;99.90;;;;;;5059247;28;20202;-69
2022/12/10 11:29:46;;;;;;;17.40;15.33;;;4.10;99.90;;;;;;5054761;28;20311;-69
2022/12/10 11:32:21;;;;;;;18.53;14.97;;;4.00;99.90;;;;;;5049767;28;20209;-69
2022/12/10 11:35:01;;;;;;;17.93;13.77;;;3.90;99.90;;;;;;5033429;28;20193;-69
2022/12/10 11:38:03;;;;;;;19.10;14.63;;;3.80;99.90;;;;;;5033560;28;20239;-69
2022/12/10 11:40:54;;;;;;;19.77;16.53;;;3.80;99.90;;;;;;5033186;28;20221;-69
2022/12/10 11:43:35;;;;;;;19.80;15.17;;;3.90;99.90;;;;;;5031930;28;20192;-69
2022/12/10 11:46:21;;;;;;;19.73;16.23;;;3.90;99.90;;;;;;5032453;28;20187;-69
2022/12/10 11:48:53;;;;;;;20.17;15.70;;;4.00;99.90;;;;;;5031957;28;20203;-68
2022/12/10 11:51:33;;;;;;;19.87;14.67;;;4.10;99.90;;;;;;5033580;28;20285;-68
2022/12/10 11:54:16;;;;;;;20.90;16.90;;;4.00;99.90;;;;;;5051183;28;20212;-70
2022/12/10 11:56:49;;;;;;;23.97;17.63;;;4.10;99.90;;;;;;5051808;28;20654;-69
2022/12/10 11:59:25;;;;;;;19.77;15.90;;;4.20;99.90;;;;;;5052946;28;20254;-68
2022/12/10 12:02:17;;;;;;;21.83;16.07;;;4.20;99.90;;;;;;5051665;28;20197;-68
2022/12/10 12:04:56;;;;;;;22.67;17.03;;;4.20;99.90;;;;;;5031567;28;20677;-69
2022/12/10 12:07:28;;;;;;;20.60;16.07;;;4.30;99.90;;;;;;5031716;28;20278;-68
2022/12/10 12:10:13;;;;;;;22.73;17.53;;;4.40;99.90;;;;;;5031401;28;20237;-70
2022/12/10 12:13:02;;;;;;;22.17;17.33;;;4.70;99.90;;;;;;5038203;28;20639;-69
2022/12/10 12:15:43;;;;;;;22.97;17.50;;;4.80;99.90;;;;;;5051638;28;20177;-69
2022/12/10 12:18:14;;;;;;;20.80;17.37;;;4.80;99.90;;;;;;5050358;28;20181;-69
2022/12/10 12:20:45;;;;;;;21.63;17.37;;;4.70;99.90;;;;;;5051631;28;20199;-66
2022/12/10 12:23:15;;;;;;;22.13;17.33;;;4.70;99.90;;;;;;5052439;28;20179;-69
2022/12/10 12:25:47;;;;;;;21.80;16.40;;;4.80;99.90;;;;;;5052768;28;20189;-69
2022/12/10 12:28:22;;;;;;;27.10;17.97;;;4.80;99.90;;;;;;5052183;28;20183;-68
2022/12/10 12:31:02;;;;;;;24.67;20.17;;;4.80;99.90;;;;;;5051363;28;20225;-69
2022/12/10 12:33:43;;;;;;;25.23;19.40;;;4.70;99.90;;;;;;5039229;28;20218;-69
2022/12/10 12:36:23;;;;;;;23.50;18.40;;;4.50;99.90;;;;;;5032641;28;20651;-68
2022/12/10 12:39:04;;;;;;;21.40;17.67;;;4.50;99.90;;;;;;5032098;28;20182;-68
2022/12/10 12:41:38;;;;;;;22.53;16.47;;;4.20;99.90;;;;;;5069751;23;20257;-71
2022/12/10 12:44:22;;;;;;;24.97;16.43;;;4.20;99.90;;;;;;5052140;28;20281;-71
2022/12/10 12:46:49;;;;;;;20.43;15.67;;;4.10;99.90;;;;;;5052491;28;20213;-71
2022/12/10 12:49:34;;;;;;;20.90;17.37;;;4.20;99.90;;;;;;5050976;28;20209;-71
2022/12/10 12:52:19;;;;;;;19.93;16.40;;;4.10;99.90;;;;;;5032409;28;20179;-71
2022/12/10 12:54:45;;;;;;;20.97;15.93;;;4.00;99.90;;;;;;5033374;28;20269;-72
2022/12/10 12:57:34;;;;;;;20.23;17.27;;;4.00;99.90;;;;;;5031703;28;20601;-71
2022/12/10 13:00:29;;;;;;;21.43;17.73;;;4.00;99.90;;;;;;5032073;28;20621;-72